sensor_id;sensor_type;location;lat;lon;timestamp;P1;durP1;ratioP1;P2;durP2;ratioP2
63218;SDS011;49320;52.512;13.448;2022-12-01T00:01:18;49.42;;;29.45;;
63218;SDS011;49320;52.512;13.448;2022-12-01T00:03:45;48.05;;;28.55;;
63218;SDS011;49320;52.512;13.448;2022-12-01T00:06:13;45.85;;;29.05;;
63218;SDS011;49320;52.512;13.448;2022-12-01T00:08:44;48.70;;;28.65;;
63218;SDS011;49320;52.512;13.448;2022-12-01T00:11:43;44.38;;;27.98;;
63218;SDS011;49320;52.512;13.448;2022-12-01T00:14:10;40.70;;;25.25;;
63218;SDS011;49320;52.512;13.448;2022-12-01T00:16:36;40.75;;;25.80;;
63218;SDS011;49320;52.512;13.448;2022-12-01T00:19:05;41.75;;;27.52;;
63218;SDS011;49320;52.512;13.448;2022-12-01T00:21:32;45.10;;;27.13;;
63218;SDS011;49320;52.512;13.448;2022-12-01T00:23:59;42.58;;;25.38;;
63218;SDS011;49320;52.512;13.448;2022-12-01T00:26:26;38.92;;;25.05;;
63218;SDS011;49320;52.512;13.448;2022-12-01T00:28:54;45.58;;;27.92;;
63218;SDS011;49320;52.512;13.448;2022-12-01T00:31:24;40.58;;;25.15;;
63218;SDS011;49320;52.512;13.448;2022-12-01T00:33:51;46.30;;;28.55;;
63218;SDS011;49320;52.512;13.448;2022-12-01T00:36:18;45.63;;;29.10;;
63218;SDS011;49320;52.512;13.448;2022-12-01T00:38:45;49.95;;;29.83;;
63218;SDS011;49320;52.512;13.448;2022-12-01T00:41:12;44.97;;;28.67;;
63218;SDS011;49320;52.512;13.448;2022-12-01T00:43:39;49.03;;;30.80;;
63218;SDS011;49320;52.512;13.448;2022-12-01T00:46:06;49.63;;;29.42;;
63218;SDS011;49320;52.512;13.448;2022-12-01T00:48:33;44.95;;;27.77;;
63218;SDS011;49320;52.512;13.448;2022-12-01T00:50:59;49.03;;;28.75;;
63218;SDS011;49320;52.512;13.448;2022-12-01T00:53:26;50.47;;;29.95;;
63218;SDS011;49320;52.512;13.448;2022-12-01T00:55:53;48.60;;;29.10;;
63218;SDS011;49320;52.512;13.448;2022-12-01T00:58:20;52.08;;;30.48;;
63218;SDS011;49320;52.512;13.448;2022-12-01T01:00:48;48.05;;;31.05;;
63218;SDS011;49320;52.512;13.448;2022-12-01T01:03:24;50.30;;;30.40;;
63218;SDS011;49320;52.512;13.448;2022-12-01T01:05:52;54.78;;;31.98;;
63218;SDS011;49320;52.512;13.448;2022-12-01T01:08:19;52.65;;;31.80;;
63218;SDS011;49320;52.512;13.448;2022-12-01T01:10:46;49.00;;;29.08;;
63218;SDS011;49320;52.512;13.448;2022-12-01T01:13:14;55.30;;;32.38;;
63218;SDS011;49320;52.512;13.448;2022-12-01T01:15:41;50.28;;;29.60;;
63218;SDS011;49320;52.512;13.448;2022-12-01T01:18:09;46.35;;;27.77;;
63218;SDS011;49320;52.512;13.448;2022-12-01T01:20:37;50.47;;;29.05;;
63218;SDS011;49320;52.512;13.448;2022-12-01T01:23:04;45.65;;;28.65;;
63218;SDS011;49320;52.512;13.448;2022-12-01T01:25:32;44.13;;;26.65;;
63218;SDS011;49320;52.512;13.448;2022-12-01T01:27:59;44.38;;;27.40;;
63218;SDS011;49320;52.512;13.448;2022-12-01T01:30:26;46.53;;;27.17;;
63218;SDS011;49320;52.512;13.448;2022-12-01T01:32:53;48.72;;;28.45;;
63218;SDS011;49320;52.512;13.448;2022-12-01T01:35:19;48.92;;;27.73;;
63218;SDS011;49320;52.512;13.448;2022-12-01T01:37:46;46.45;;;27.70;;
63218;SDS011;49320;52.512;13.448;2022-12-01T01:40:15;43.15;;;25.55;;
63218;SDS011;49320;52.512;13.448;2022-12-01T01:42:42;45.92;;;26.33;;
63218;SDS011;49320;52.512;13.448;2022-12-01T01:45:22;44.90;;;26.75;;
63218;SDS011;49320;52.512;13.448;2022-12-01T01:47:54;43.75;;;26.88;;
63218;SDS011;49320;52.512;13.448;2022-12-01T01:50:25;43.95;;;25.33;;
63218;SDS011;49320;52.512;13.448;2022-12-01T01:52:56;48.33;;;27.38;;
63218;SDS011;49320;52.512;13.448;2022-12-01T01:55:28;45.28;;;27.83;;
63218;SDS011;49320;52.512;13.448;2022-12-01T01:57:58;46.75;;;27.80;;
63218;SDS011;49320;52.512;13.448;2022-12-01T02:00:29;51.05;;;28.58;;
63218;SDS011;49320;52.512;13.448;2022-12-01T02:02:56;49.45;;;27.92;;
63218;SDS011;49320;52.512;13.448;2022-12-01T02:05:25;51.38;;;29.27;;
63218;SDS011;49320;52.512;13.448;2022-12-01T02:07:57;47.42;;;28.13;;
63218;SDS011;49320;52.512;13.448;2022-12-01T02:10:37;47.17;;;28.60;;
63218;SDS011;49320;52.512;13.448;2022-12-01T02:16:18;49.35;;;28.95;;
63218;SDS011;49320;52.512;13.448;2022-12-01T02:19:06;51.55;;;29.25;;
63218;SDS011;49320;52.512;13.448;2022-12-01T02:22:12;48.45;;;28.35;;
63218;SDS011;49320;52.512;13.448;2022-12-01T02:25:06;49.92;;;27.38;;
63218;SDS011;49320;52.512;13.448;2022-12-01T02:30:58;48.35;;;28.13;;
63218;SDS011;49320;52.512;13.448;2022-12-01T02:36:42;50.08;;;28.50;;
63218;SDS011;49320;52.512;13.448;2022-12-01T02:39:28;52.42;;;29.73;;
63218;SDS011;49320;52.512;13.448;2022-12-01T02:42:15;54.63;;;31.23;;
63218;SDS011;49320;52.512;13.448;2022-12-01T02:45:08;52.50;;;30.38;;
63218;SDS011;49320;52.512;13.448;2022-12-01T02:47:41;51.83;;;29.40;;
63218;SDS011;49320;52.512;13.448;2022-12-01T02:50:11;50.22;;;29.45;;
63218;SDS011;49320;52.512;13.448;2022-12-01T02:52:39;56.95;;;30.48;;
63218;SDS011;49320;52.512;13.448;2022-12-01T02:55:07;47.10;;;28.98;;
63218;SDS011;49320;52.512;13.448;2022-12-01T02:57:34;50.33;;;31.15;;
63218;SDS011;49320;52.512;13.448;2022-12-01T03:00:01;56.55;;;32.80;;
63218;SDS011;49320;52.512;13.448;2022-12-01T03:11:11;50.85;;;28.85;;
63218;SDS011;49320;52.512;13.448;2022-12-01T03:13:56;54.78;;;32.13;;
63218;SDS011;49320;52.512;13.448;2022-12-01T03:16:46;53.95;;;30.55;;
63218;SDS011;49320;52.512;13.448;2022-12-01T03:19:32;54.13;;;31.27;;
63218;SDS011;49320;52.512;13.448;2022-12-01T03:22:25;51.80;;;30.98;;
63218;SDS011;49320;52.512;13.448;2022-12-01T03:25:00;54.97;;;31.30;;
63218;SDS011;49320;52.512;13.448;2022-12-01T03:27:30;60.38;;;32.35;;
63218;SDS011;49320;52.512;13.448;2022-12-01T03:30:03;54.08;;;31.48;;
63218;SDS011;49320;52.512;13.448;2022-12-01T03:32:48;52.25;;;30.10;;
63218;SDS011;49320;52.512;13.448;2022-12-01T03:35:23;55.83;;;31.88;;
63218;SDS011;49320;52.512;13.448;2022-12-01T03:38:03;56.03;;;31.80;;
63218;SDS011;49320;52.512;13.448;2022-12-01T03:40:37;54.22;;;31.55;;
63218;SDS011;49320;52.512;13.448;2022-12-01T03:43:06;54.60;;;30.83;;
63218;SDS011;49320;52.512;13.448;2022-12-01T03:45:51;54.38;;;30.40;;
63218;SDS011;49320;52.512;13.448;2022-12-01T03:48:25;50.28;;;29.85;;
63218;SDS011;49320;52.512;13.448;2022-12-01T03:51:10;55.22;;;31.73;;
63218;SDS011;49320;52.512;13.448;2022-12-01T03:56:52;58.67;;;33.25;;
63218;SDS011;49320;52.512;13.448;2022-12-01T03:59:28;60.28;;;33.78;;
63218;SDS011;49320;52.512;13.448;2022-12-01T04:01:56;56.65;;;32.35;;
63218;SDS011;49320;52.512;13.448;2022-12-01T04:04:23;60.30;;;33.30;;
63218;SDS011;49320;52.512;13.448;2022-12-01T04:06:50;59.55;;;32.55;;
63218;SDS011;49320;52.512;13.448;2022-12-01T04:09:17;58.40;;;33.95;;
63218;SDS011;49320;52.512;13.448;2022-12-01T04:11:44;59.00;;;35.35;;
63218;SDS011;49320;52.512;13.448;2022-12-01T04:14:30;58.53;;;33.17;;
63218;SDS011;49320;52.512;13.448;2022-12-01T04:16:57;61.22;;;33.35;;
63218;SDS011;49320;52.512;13.448;2022-12-01T04:19:23;54.38;;;31.63;;
63218;SDS011;49320;52.512;13.448;2022-12-01T04:21:51;57.13;;;32.97;;
63218;SDS011;49320;52.512;13.448;2022-12-01T04:24:18;62.03;;;35.00;;
63218;SDS011;49320;52.512;13.448;2022-12-01T04:26:45;61.05;;;34.88;;
63218;SDS011;49320;52.512;13.448;2022-12-01T04:29:12;58.70;;;35.42;;
63218;SDS011;49320;52.512;13.448;2022-12-01T04:31:39;52.50;;;32.17;;
63218;SDS011;49320;52.512;13.448;2022-12-01T04:34:06;57.42;;;33.47;;
63218;SDS011;49320;52.512;13.448;2022-12-01T04:36:34;59.20;;;33.05;;
63218;SDS011;49320;52.512;13.448;2022-12-01T04:39:01;55.13;;;33.28;;
63218;SDS011;49320;52.512;13.448;2022-12-01T04:41:28;57.05;;;32.67;;
63218;SDS011;49320;52.512;13.448;2022-12-01T04:43:55;52.30;;;32.40;;
63218;SDS011;49320;52.512;13.448;2022-12-01T04:46:23;56.90;;;33.58;;
63218;SDS011;49320;52.512;13.448;2022-12-01T04:48:50;57.40;;;32.28;;
63218;SDS011;49320;52.512;13.448;2022-12-01T04:51:17;57.83;;;34.30;;
63218;SDS011;49320;52.512;13.448;2022-12-01T04:53:48;55.97;;;33.88;;
63218;SDS011;49320;52.512;13.448;2022-12-01T04:56:15;57.25;;;34.40;;
63218;SDS011;49320;52.512;13.448;2022-12-01T04:58:42;55.70;;;33.38;;
63218;SDS011;49320;52.512;13.448;2022-12-01T05:01:11;51.40;;;30.98;;
63218;SDS011;49320;52.512;13.448;2022-12-01T05:03:42;54.38;;;32.92;;
63218;SDS011;49320;52.512;13.448;2022-12-01T05:06:15;51.75;;;31.73;;
63218;SDS011;49320;52.512;13.448;2022-12-01T05:08:46;51.08;;;31.67;;
63218;SDS011;49320;52.512;13.448;2022-12-01T05:11:14;49.42;;;31.70;;
63218;SDS011;49320;52.512;13.448;2022-12-01T05:13:43;55.65;;;32.67;;
63218;SDS011;49320;52.512;13.448;2022-12-01T05:16:13;51.63;;;31.77;;
63218;SDS011;49320;52.512;13.448;2022-12-01T05:18:46;52.42;;;31.77;;
63218;SDS011;49320;52.512;13.448;2022-12-01T05:21:16;51.97;;;31.60;;
63218;SDS011;49320;52.512;13.448;2022-12-01T05:23:43;50.35;;;32.25;;
63218;SDS011;49320;52.512;13.448;2022-12-01T05:26:10;54.58;;;34.17;;
63218;SDS011;49320;52.512;13.448;2022-12-01T05:28:37;59.08;;;36.30;;
63218;SDS011;49320;52.512;13.448;2022-12-01T05:31:05;55.05;;;33.78;;
63218;SDS011;49320;52.512;13.448;2022-12-01T05:33:33;59.45;;;36.30;;
63218;SDS011;49320;52.512;13.448;2022-12-01T05:35:59;62.42;;;37.00;;
63218;SDS011;49320;52.512;13.448;2022-12-01T05:38:26;52.25;;;33.35;;
63218;SDS011;49320;52.512;13.448;2022-12-01T05:40:54;57.88;;;35.42;;
63218;SDS011;49320;52.512;13.448;2022-12-01T05:43:22;54.88;;;35.85;;
63218;SDS011;49320;52.512;13.448;2022-12-01T05:45:54;54.65;;;35.58;;
63218;SDS011;49320;52.512;13.448;2022-12-01T05:48:22;56.42;;;36.53;;
63218;SDS011;49320;52.512;13.448;2022-12-01T05:50:49;57.78;;;35.40;;
63218;SDS011;49320;52.512;13.448;2022-12-01T05:53:16;56.88;;;36.55;;
63218;SDS011;49320;52.512;13.448;2022-12-01T05:55:44;57.22;;;36.35;;
63218;SDS011;49320;52.512;13.448;2022-12-01T05:58:11;52.00;;;34.83;;
63218;SDS011;49320;52.512;13.448;2022-12-01T06:00:38;56.60;;;36.60;;
63218;SDS011;49320;52.512;13.448;2022-12-01T06:03:11;54.33;;;34.63;;
63218;SDS011;49320;52.512;13.448;2022-12-01T06:05:39;55.67;;;36.58;;
63218;SDS011;49320;52.512;13.448;2022-12-01T06:08:06;57.60;;;35.47;;
63218;SDS011;49320;52.512;13.448;2022-12-01T06:10:33;59.08;;;37.72;;
63218;SDS011;49320;52.512;13.448;2022-12-01T06:13:00;53.60;;;35.08;;
63218;SDS011;49320;52.512;13.448;2022-12-01T06:15:27;57.45;;;36.45;;
63218;SDS011;49320;52.512;13.448;2022-12-01T06:17:53;48.22;;;33.05;;
63218;SDS011;49320;52.512;13.448;2022-12-01T06:20:24;52.13;;;34.85;;
63218;SDS011;49320;52.512;13.448;2022-12-01T06:22:51;52.15;;;35.33;;
63218;SDS011;49320;52.512;13.448;2022-12-01T06:25:18;53.95;;;34.90;;
63218;SDS011;49320;52.512;13.448;2022-12-01T06:27:45;56.88;;;37.08;;
63218;SDS011;49320;52.512;13.448;2022-12-01T06:30:12;52.17;;;34.50;;
63218;SDS011;49320;52.512;13.448;2022-12-01T06:32:39;58.35;;;37.55;;
63218;SDS011;49320;52.512;13.448;2022-12-01T06:35:06;55.30;;;36.72;;
63218;SDS011;49320;52.512;13.448;2022-12-01T06:37:33;57.53;;;38.22;;
63218;SDS011;49320;52.512;13.448;2022-12-01T06:40:00;54.08;;;36.40;;
63218;SDS011;49320;52.512;13.448;2022-12-01T06:42:30;54.40;;;37.03;;
63218;SDS011;49320;52.512;13.448;2022-12-01T06:44:57;56.20;;;36.75;;
63218;SDS011;49320;52.512;13.448;2022-12-01T06:47:24;56.05;;;36.20;;
63218;SDS011;49320;52.512;13.448;2022-12-01T06:49:51;57.53;;;37.70;;
63218;SDS011;49320;52.512;13.448;2022-12-01T06:52:18;59.45;;;37.67;;
63218;SDS011;49320;52.512;13.448;2022-12-01T06:54:45;60.42;;;39.92;;
63218;SDS011;49320;52.512;13.448;2022-12-01T06:57:12;60.15;;;40.35;;
63218;SDS011;49320;52.512;13.448;2022-12-01T06:59:39;61.10;;;40.10;;
63218;SDS011;49320;52.512;13.448;2022-12-01T07:02:08;60.42;;;40.08;;
63218;SDS011;49320;52.512;13.448;2022-12-01T07:04:37;63.60;;;41.13;;
63218;SDS011;49320;52.512;13.448;2022-12-01T07:07:04;70.85;;;43.38;;
63218;SDS011;49320;52.512;13.448;2022-12-01T07:09:31;67.95;;;42.38;;
63218;SDS011;49320;52.512;13.448;2022-12-01T07:11:58;72.13;;;44.38;;
63218;SDS011;49320;52.512;13.448;2022-12-01T07:14:26;71.38;;;44.20;;
63218;SDS011;49320;52.512;13.448;2022-12-01T07:16:53;73.15;;;44.75;;
63218;SDS011;49320;52.512;13.448;2022-12-01T07:19:20;70.32;;;41.22;;
63218;SDS011;49320;52.512;13.448;2022-12-01T07:21:46;64.47;;;42.42;;
63218;SDS011;49320;52.512;13.448;2022-12-01T07:24:13;68.43;;;43.38;;
63218;SDS011;49320;52.512;13.448;2022-12-01T07:26:40;69.25;;;43.67;;
63218;SDS011;49320;52.512;13.448;2022-12-01T07:29:08;68.97;;;43.83;;
63218;SDS011;49320;52.512;13.448;2022-12-01T07:31:36;67.85;;;44.67;;
63218;SDS011;49320;52.512;13.448;2022-12-01T07:34:03;71.63;;;44.53;;
63218;SDS011;49320;52.512;13.448;2022-12-01T07:36:31;74.22;;;45.70;;
63218;SDS011;49320;52.512;13.448;2022-12-01T07:38:58;71.75;;;46.35;;
63218;SDS011;49320;52.512;13.448;2022-12-01T07:41:25;72.47;;;45.42;;
63218;SDS011;49320;52.512;13.448;2022-12-01T07:43:53;74.88;;;46.28;;
63218;SDS011;49320;52.512;13.448;2022-12-01T07:46:21;85.00;;;49.35;;
63218;SDS011;49320;52.512;13.448;2022-12-01T07:48:52;81.15;;;48.58;;
63218;SDS011;49320;52.512;13.448;2022-12-01T07:51:21;82.50;;;49.88;;
63218;SDS011;49320;52.512;13.448;2022-12-01T07:53:50;88.93;;;52.85;;
63218;SDS011;49320;52.512;13.448;2022-12-01T07:56:18;81.18;;;49.60;;
63218;SDS011;49320;52.512;13.448;2022-12-01T07:58:47;84.43;;;50.25;;
63218;SDS011;49320;52.512;13.448;2022-12-01T08:01:15;86.10;;;51.13;;
63218;SDS011;49320;52.512;13.448;2022-12-01T08:03:47;84.18;;;50.17;;
63218;SDS011;49320;52.512;13.448;2022-12-01T08:06:16;89.97;;;53.10;;
63218;SDS011;49320;52.512;13.448;2022-12-01T08:08:44;84.80;;;51.08;;
63218;SDS011;49320;52.512;13.448;2022-12-01T08:11:13;85.47;;;51.30;;
63218;SDS011;49320;52.512;13.448;2022-12-01T08:13:43;86.05;;;51.08;;
63218;SDS011;49320;52.512;13.448;2022-12-01T08:16:11;83.82;;;50.78;;
63218;SDS011;49320;52.512;13.448;2022-12-01T08:18:41;80.55;;;49.22;;
63218;SDS011;49320;52.512;13.448;2022-12-01T08:21:09;77.05;;;47.85;;
63218;SDS011;49320;52.512;13.448;2022-12-01T08:23:39;68.60;;;42.88;;
63218;SDS011;49320;52.512;13.448;2022-12-01T08:26:08;73.40;;;43.63;;
63218;SDS011;49320;52.512;13.448;2022-12-01T08:28:44;75.63;;;46.67;;
63218;SDS011;49320;52.512;13.448;2022-12-01T08:31:14;80.25;;;47.80;;
63218;SDS011;49320;52.512;13.448;2022-12-01T08:33:41;80.40;;;47.17;;
63218;SDS011;49320;52.512;13.448;2022-12-01T08:36:08;76.97;;;46.35;;
63218;SDS011;49320;52.512;13.448;2022-12-01T08:38:35;74.90;;;46.28;;
63218;SDS011;49320;52.512;13.448;2022-12-01T08:41:03;80.80;;;48.28;;
63218;SDS011;49320;52.512;13.448;2022-12-01T08:43:33;77.85;;;47.97;;
63218;SDS011;49320;52.512;13.448;2022-12-01T08:46:26;82.75;;;49.22;;
63218;SDS011;49320;52.512;13.448;2022-12-01T08:49:00;80.90;;;48.97;;
63218;SDS011;49320;52.512;13.448;2022-12-01T08:51:29;81.15;;;50.35;;
63218;SDS011;49320;52.512;13.448;2022-12-01T08:53:57;81.38;;;49.03;;
63218;SDS011;49320;52.512;13.448;2022-12-01T08:56:26;80.15;;;48.72;;
63218;SDS011;49320;52.512;13.448;2022-12-01T08:58:57;81.70;;;49.92;;
63218;SDS011;49320;52.512;13.448;2022-12-01T09:01:24;78.15;;;48.60;;
63218;SDS011;49320;52.512;13.448;2022-12-01T09:03:51;87.25;;;52.40;;
63218;SDS011;49320;52.512;13.448;2022-12-01T09:06:32;94.50;;;55.70;;
63218;SDS011;49320;52.512;13.448;2022-12-01T09:09:11;80.65;;;50.88;;
63218;SDS011;49320;52.512;13.448;2022-12-01T09:11:44;85.00;;;52.10;;
63218;SDS011;49320;52.512;13.448;2022-12-01T09:14:13;79.80;;;47.38;;
63218;SDS011;49320;52.512;13.448;2022-12-01T09:16:42;80.10;;;49.83;;
63218;SDS011;49320;52.512;13.448;2022-12-01T09:19:11;92.65;;;54.80;;
63218;SDS011;49320;52.512;13.448;2022-12-01T09:21:50;84.28;;;53.15;;
63218;SDS011;49320;52.512;13.448;2022-12-01T09:24:16;78.25;;;49.00;;
63218;SDS011;49320;52.512;13.448;2022-12-01T09:26:43;78.28;;;49.15;;
63218;SDS011;49320;52.512;13.448;2022-12-01T09:29:11;86.00;;;52.88;;
63218;SDS011;49320;52.512;13.448;2022-12-01T09:31:40;89.28;;;54.65;;
63218;SDS011;49320;52.512;13.448;2022-12-01T09:34:12;90.13;;;53.50;;
63218;SDS011;49320;52.512;13.448;2022-12-01T09:36:43;85.32;;;52.58;;
63218;SDS011;49320;52.512;13.448;2022-12-01T09:39:12;84.03;;;52.47;;
63218;SDS011;49320;52.512;13.448;2022-12-01T09:41:53;78.18;;;48.45;;
63218;SDS011;49320;52.512;13.448;2022-12-01T09:44:43;72.20;;;46.15;;
63218;SDS011;49320;52.512;13.448;2022-12-01T09:47:24;74.38;;;47.53;;
63218;SDS011;49320;52.512;13.448;2022-12-01T09:52:40;69.75;;;44.03;;
63218;SDS011;49320;52.512;13.448;2022-12-01T09:55:17;72.28;;;45.63;;
63218;SDS011;49320;52.512;13.448;2022-12-01T09:57:50;68.45;;;43.97;;
63218;SDS011;49320;52.512;13.448;2022-12-01T10:00:22;73.85;;;47.55;;
63218;SDS011;49320;52.512;13.448;2022-12-01T10:06:09;71.68;;;45.58;;
63218;SDS011;49320;52.512;13.448;2022-12-01T10:08:59;65.60;;;43.75;;
63218;SDS011;49320;52.512;13.448;2022-12-01T10:11:41;68.40;;;44.58;;
63218;SDS011;49320;52.512;13.448;2022-12-01T10:14:14;65.47;;;42.88;;
63218;SDS011;49320;52.512;13.448;2022-12-01T10:16:52;61.47;;;39.95;;
63218;SDS011;49320;52.512;13.448;2022-12-01T10:19:49;63.15;;;41.88;;
63218;SDS011;49320;52.512;13.448;2022-12-01T10:25:32;63.03;;;40.63;;
63218;SDS011;49320;52.512;13.448;2022-12-01T10:30:59;59.97;;;40.20;;
63218;SDS011;49320;52.512;13.448;2022-12-01T10:34:07;61.85;;;42.30;;
63218;SDS011;49320;52.512;13.448;2022-12-01T10:36:45;59.22;;;40.95;;
63218;SDS011;49320;52.512;13.448;2022-12-01T10:39:19;55.33;;;38.95;;
63218;SDS011;49320;52.512;13.448;2022-12-01T10:42:41;59.25;;;41.00;;
63218;SDS011;49320;52.512;13.448;2022-12-01T10:45:15;53.70;;;38.60;;
63218;SDS011;49320;52.512;13.448;2022-12-01T10:50:41;58.85;;;40.92;;
63218;SDS011;49320;52.512;13.448;2022-12-01T10:53:33;58.15;;;40.42;;
63218;SDS011;49320;52.512;13.448;2022-12-01T10:56:09;56.58;;;39.63;;
63218;SDS011;49320;52.512;13.448;2022-12-01T10:58:45;60.60;;;41.63;;
63218;SDS011;49320;52.512;13.448;2022-12-01T11:01:22;55.30;;;40.13;;
63218;SDS011;49320;52.512;13.448;2022-12-01T11:06:48;55.92;;;39.40;;
63218;SDS011;49320;52.512;13.448;2022-12-01T11:09:17;53.45;;;38.50;;
63218;SDS011;49320;52.512;13.448;2022-12-01T11:11:55;56.40;;;39.42;;
63218;SDS011;49320;52.512;13.448;2022-12-01T11:14:42;60.33;;;40.80;;
63218;SDS011;49320;52.512;13.448;2022-12-01T11:17:15;56.72;;;38.10;;
63218;SDS011;49320;52.512;13.448;2022-12-01T11:19:53;58.35;;;38.65;;
63218;SDS011;49320;52.512;13.448;2022-12-01T11:22:21;54.85;;;39.92;;
63218;SDS011;49320;52.512;13.448;2022-12-01T11:27:19;53.38;;;38.08;;
63218;SDS011;49320;52.512;13.448;2022-12-01T11:29:56;54.70;;;39.50;;
63218;SDS011;49320;52.512;13.448;2022-12-01T11:32:33;49.45;;;36.25;;
63218;SDS011;49320;52.512;13.448;2022-12-01T11:35:22;49.35;;;36.17;;
63218;SDS011;49320;52.512;13.448;2022-12-01T11:37:56;52.80;;;37.75;;
63218;SDS011;49320;52.512;13.448;2022-12-01T11:40:47;52.05;;;37.38;;
63218;SDS011;49320;52.512;13.448;2022-12-01T11:43:31;57.10;;;38.58;;
63218;SDS011;49320;52.512;13.448;2022-12-01T11:46:02;51.10;;;37.15;;
63218;SDS011;49320;52.512;13.448;2022-12-01T11:48:33;54.85;;;37.90;;
63218;SDS011;49320;52.512;13.448;2022-12-01T11:51:03;52.58;;;38.78;;
63218;SDS011;49320;52.512;13.448;2022-12-01T11:53:37;53.25;;;38.85;;
63218;SDS011;49320;52.512;13.448;2022-12-01T11:56:19;51.70;;;36.35;;
63218;SDS011;49320;52.512;13.448;2022-12-01T11:58:57;51.00;;;38.30;;
63218;SDS011;49320;52.512;13.448;2022-12-01T12:10:45;51.92;;;36.92;;
63218;SDS011;49320;52.512;13.448;2022-12-01T12:13:51;48.10;;;35.13;;
63218;SDS011;49320;52.512;13.448;2022-12-01T12:17:01;46.67;;;34.00;;
63218;SDS011;49320;52.512;13.448;2022-12-01T12:22:48;44.60;;;32.63;;
63218;SDS011;49320;52.512;13.448;2022-12-01T12:25:47;45.33;;;33.65;;
63218;SDS011;49320;52.512;13.448;2022-12-01T12:28:27;45.45;;;33.08;;
63218;SDS011;49320;52.512;13.448;2022-12-01T12:31:29;47.08;;;34.03;;
63218;SDS011;49320;52.512;13.448;2022-12-01T12:34:47;39.63;;;31.05;;
63218;SDS011;49320;52.512;13.448;2022-12-01T12:38:03;42.08;;;32.33;;
63218;SDS011;49320;52.512;13.448;2022-12-01T12:44:57;38.67;;;28.42;;
63218;SDS011;49320;52.512;13.448;2022-12-01T12:47:21;41.13;;;30.75;;
63218;SDS011;49320;52.512;13.448;2022-12-01T12:53:14;38.65;;;29.15;;
63218;SDS011;49320;52.512;13.448;2022-12-01T12:55:51;38.92;;;29.98;;
63218;SDS011;49320;52.512;13.448;2022-12-01T12:58:26;40.63;;;31.42;;
63218;SDS011;49320;52.512;13.448;2022-12-01T13:01:21;42.55;;;31.77;;
63218;SDS011;49320;52.512;13.448;2022-12-01T13:04:24;43.20;;;31.73;;
63218;SDS011;49320;52.512;13.448;2022-12-01T13:10:06;42.63;;;31.63;;
63218;SDS011;49320;52.512;13.448;2022-12-01T13:16:03;42.55;;;30.63;;
63218;SDS011;49320;52.512;13.448;2022-12-01T13:18:49;40.15;;;30.13;;
63218;SDS011;49320;52.512;13.448;2022-12-01T13:21:24;41.65;;;30.75;;
63218;SDS011;49320;52.512;13.448;2022-12-01T13:24:02;38.45;;;29.20;;
63218;SDS011;49320;52.512;13.448;2022-12-01T13:26:32;43.72;;;31.50;;
63218;SDS011;49320;52.512;13.448;2022-12-01T13:29:03;41.42;;;30.10;;
63218;SDS011;49320;52.512;13.448;2022-12-01T13:31:41;44.05;;;32.45;;
63218;SDS011;49320;52.512;13.448;2022-12-01T13:36:52;43.67;;;32.10;;
63218;SDS011;49320;52.512;13.448;2022-12-01T13:39:21;43.03;;;32.28;;
63218;SDS011;49320;52.512;13.448;2022-12-01T13:41:55;43.22;;;31.35;;
63218;SDS011;49320;52.512;13.448;2022-12-01T13:45:14;45.33;;;33.25;;
63218;SDS011;49320;52.512;13.448;2022-12-01T14:03:52;40.95;;;31.15;;
63218;SDS011;49320;52.512;13.448;2022-12-01T14:06:41;38.90;;;29.70;;
63218;SDS011;49320;52.512;13.448;2022-12-01T14:09:17;35.90;;;28.23;;
63218;SDS011;49320;52.512;13.448;2022-12-01T14:11:59;37.83;;;29.08;;
63218;SDS011;49320;52.512;13.448;2022-12-01T14:14:36;41.63;;;30.40;;
63218;SDS011;49320;52.512;13.448;2022-12-01T14:17:30;39.13;;;30.05;;
63218;SDS011;49320;52.512;13.448;2022-12-01T14:20:16;39.28;;;30.27;;
63218;SDS011;49320;52.512;13.448;2022-12-01T14:22:47;38.38;;;29.75;;
63218;SDS011;49320;52.512;13.448;2022-12-01T14:25:58;43.10;;;30.27;;
63218;SDS011;49320;52.512;13.448;2022-12-01T14:29:05;39.80;;;30.75;;
63218;SDS011;49320;52.512;13.448;2022-12-01T14:34:06;37.88;;;30.27;;
63218;SDS011;49320;52.512;13.448;2022-12-01T14:36:45;38.65;;;29.30;;
63218;SDS011;49320;52.512;13.448;2022-12-01T14:39:22;38.50;;;30.15;;
63218;SDS011;49320;52.512;13.448;2022-12-01T14:44:29;39.72;;;27.88;;
63218;SDS011;49320;52.512;13.448;2022-12-01T14:47:00;37.67;;;28.95;;
63218;SDS011;49320;52.512;13.448;2022-12-01T14:49:38;41.92;;;29.35;;
63218;SDS011;49320;52.512;13.448;2022-12-01T14:54:59;36.45;;;26.83;;
63218;SDS011;49320;52.512;13.448;2022-12-01T14:57:33;33.73;;;26.43;;
63218;SDS011;49320;52.512;13.448;2022-12-01T15:00:10;39.63;;;27.45;;
63218;SDS011;49320;52.512;13.448;2022-12-01T15:02:43;35.45;;;26.90;;
63218;SDS011;49320;52.512;13.448;2022-12-01T15:05:18;37.70;;;27.88;;
63218;SDS011;49320;52.512;13.448;2022-12-01T15:07:50;39.85;;;29.48;;
63218;SDS011;49320;52.512;13.448;2022-12-01T15:10:47;36.15;;;28.17;;
63218;SDS011;49320;52.512;13.448;2022-12-01T15:13:26;38.72;;;28.30;;
63218;SDS011;49320;52.512;13.448;2022-12-01T15:15:59;36.55;;;28.38;;
63218;SDS011;49320;52.512;13.448;2022-12-01T15:18:32;40.78;;;30.63;;
63218;SDS011;49320;52.512;13.448;2022-12-01T15:21:09;39.22;;;29.98;;
63218;SDS011;49320;52.512;13.448;2022-12-01T15:26:53;35.85;;;27.67;;
63218;SDS011;49320;52.512;13.448;2022-12-01T15:32:01;38.10;;;28.60;;
63218;SDS011;49320;52.512;13.448;2022-12-01T15:34:37;37.47;;;28.23;;
63218;SDS011;49320;52.512;13.448;2022-12-01T15:37:16;35.03;;;27.30;;
63218;SDS011;49320;52.512;13.448;2022-12-01T15:39:57;37.60;;;27.67;;
63218;SDS011;49320;52.512;13.448;2022-12-01T15:43:04;39.28;;;29.48;;
63218;SDS011;49320;52.512;13.448;2022-12-01T15:45:43;37.85;;;28.88;;
63218;SDS011;49320;52.512;13.448;2022-12-01T15:48:28;43.25;;;31.52;;
63218;SDS011;49320;52.512;13.448;2022-12-01T15:51:01;37.35;;;29.63;;
63218;SDS011;49320;52.512;13.448;2022-12-01T15:53:48;39.90;;;29.95;;
63218;SDS011;49320;52.512;13.448;2022-12-01T15:56:25;37.00;;;28.08;;
63218;SDS011;49320;52.512;13.448;2022-12-01T15:59:05;37.42;;;29.10;;
63218;SDS011;49320;52.512;13.448;2022-12-01T16:01:35;37.17;;;28.75;;
63218;SDS011;49320;52.512;13.448;2022-12-01T16:04:05;40.08;;;30.63;;
63218;SDS011;49320;52.512;13.448;2022-12-01T16:10:22;35.25;;;27.33;;
63218;SDS011;49320;52.512;13.448;2022-12-01T16:12:24;38.55;;;28.77;;
63218;SDS011;49320;52.512;13.448;2022-12-01T16:17:39;38.80;;;28.88;;
63218;SDS011;49320;52.512;13.448;2022-12-01T16:23:00;36.53;;;28.17;;
63218;SDS011;49320;52.512;13.448;2022-12-01T16:25:36;36.05;;;29.13;;
63218;SDS011;49320;52.512;13.448;2022-12-01T16:28:17;38.70;;;29.45;;
63218;SDS011;49320;52.512;13.448;2022-12-01T16:30:48;39.25;;;29.98;;
63218;SDS011;49320;52.512;13.448;2022-12-01T16:33:19;37.67;;;28.08;;
63218;SDS011;49320;52.512;13.448;2022-12-01T16:35:49;38.97;;;28.35;;